ASX668 EHAM-LSZH
Flight info
| Callsign | ASX668 |
|---|---|
| Flight time | 0h 59m |
| Altitude | 33000 |
| Route | WOODY N872 NIK M624 DIK N852 SUTAL DCT GTQ DCT POGOL DCT LASAT DCT SHARA DCT TUPOV DCT BLM |
| Aircraft | C700/M-SBDGRWXY/LB2 |
Departure
| Time | 2026-04-30 07:45 |
|---|---|
| Airport | Amsterdam Airport Schiphol (EHAM) |
Arrival
| Time | 2026-04-30 08:45 |
|---|---|
| Airport | Zürich Airport (LSZH) |
| Time | Latitude | Longitude | Altitude | Speed | Heading |
|---|---|---|---|---|---|
| 2026-04-30 07:22 | 52.30255 | 4.76115 | -8 ft | 0 kts | 237° |
| 2026-04-30 07:35 | 52.30259 | 4.76125 | -8 ft | 2 kts | 234° |
| 2026-04-30 07:35 | 52.30269 | 4.76147 | -8 ft | 2 kts | 231° |
| 2026-04-30 07:36 | 52.30281 | 4.76166 | -8 ft | 2 kts | 208° |
| 2026-04-30 07:36 | 52.30295 | 4.76168 | -8 ft | 1 kts | 149° |
| 2026-04-30 07:36 | 52.30297 | 4.76166 | -8 ft | 0 kts | 146° |
| 2026-04-30 07:38 | 52.30280 | 4.76185 | -8 ft | 6 kts | 144° |
| 2026-04-30 07:38 | 52.30222 | 4.76246 | -8 ft | 13 kts | 157° |
| 2026-04-30 07:39 | 52.30160 | 4.76172 | -8 ft | 13 kts | 238° |
| 2026-04-30 07:39 | 52.30110 | 4.76043 | -8 ft | 14 kts | 237° |
| 2026-04-30 07:39 | 52.30054 | 4.75902 | -8 ft | 15 kts | 237° |
| 2026-04-30 07:39 | 52.29993 | 4.75749 | -8 ft | 17 kts | 237° |
| 2026-04-30 07:40 | 52.29929 | 4.75583 | -8 ft | 18 kts | 238° |
| 2026-04-30 07:40 | 52.29864 | 4.75405 | -8 ft | 19 kts | 240° |
| 2026-04-30 07:40 | 52.29839 | 4.75200 | -8 ft | 20 kts | 297° |
| 2026-04-30 07:40 | 52.29939 | 4.75012 | -8 ft | 24 kts | 311° |
| 2026-04-30 07:41 | 52.30054 | 4.74801 | -8 ft | 25 kts | 310° |
| 2026-04-30 07:41 | 52.30166 | 4.74598 | 0 ft | 23 kts | 311° |
| 2026-04-30 07:41 | 52.30267 | 4.74409 | 2 ft | 22 kts | 310° |
| 2026-04-30 07:41 | 52.30368 | 4.74230 | -8 ft | 23 kts | 323° |
| 2026-04-30 07:42 | 52.30526 | 4.74200 | -8 ft | 23 kts | 4° |
| 2026-04-30 07:42 | 52.30690 | 4.74214 | -8 ft | 24 kts | 2° |
| 2026-04-30 07:42 | 52.30855 | 4.74231 | -8 ft | 24 kts | 4° |
| 2026-04-30 07:42 | 52.31020 | 4.74251 | -8 ft | 24 kts | 2° |
| 2026-04-30 07:43 | 52.31186 | 4.74264 | -8 ft | 24 kts | 5° |
| 2026-04-30 07:43 | 52.31348 | 4.74277 | -8 ft | 23 kts | 18° |
| 2026-04-30 07:43 | 52.31397 | 4.74492 | -8 ft | 19 kts | 87° |
| 2026-04-30 07:43 | 52.31432 | 4.74667 | -8 ft | 17 kts | 20° |
| 2026-04-30 07:44 | 52.31542 | 4.74661 | -8 ft | 15 kts | 356° |
| 2026-04-30 07:44 | 52.31583 | 4.74656 | -8 ft | 4 kts | 355° |
| 2026-04-30 07:44 | 52.31614 | 4.74653 | -7 ft | 5 kts | 2° |
| 2026-04-30 07:44 | 52.31663 | 4.74703 | -7 ft | 13 kts | 60° |
| 2026-04-30 07:45 | 52.31676 | 4.74986 | -10 ft | 57 kts | 87° |
| 2026-04-30 07:45 | 52.31716 | 4.76194 | 15 ft | 151 kts | 88° |
| 2026-04-30 07:45 | 52.31771 | 4.78217 | 511 ft | 191 kts | 89° |
| 2026-04-30 07:45 | 52.31601 | 4.80268 | 1304 ft | 187 kts | 115° |
| 2026-04-30 07:46 | 52.30766 | 4.81785 | 2073 ft | 176 kts | 144° |
| 2026-04-30 07:46 | 52.29600 | 4.82576 | 2857 ft | 187 kts | 155° |
| 2026-04-30 07:46 | 52.28274 | 4.83321 | 3651 ft | 205 kts | 155° |
| 2026-04-30 07:46 | 52.26899 | 4.84104 | 4430 ft | 215 kts | 154° |
| 2026-04-30 07:47 | 52.25446 | 4.84720 | 5202 ft | 226 kts | 166° |
| 2026-04-30 07:47 | 52.23760 | 4.84785 | 6000 ft | 257 kts | 175° |
| 2026-04-30 07:47 | 52.21973 | 4.84714 | 6793 ft | 268 kts | 176° |
| 2026-04-30 07:47 | 52.20112 | 4.84672 | 7541 ft | 269 kts | 175° |
| 2026-04-30 07:48 | 52.18215 | 4.84638 | 8298 ft | 271 kts | 175° |
| 2026-04-30 07:48 | 52.16295 | 4.84598 | 9070 ft | 278 kts | 175° |
| 2026-04-30 07:48 | 52.14346 | 4.84556 | 9855 ft | 282 kts | 175° |
| 2026-04-30 07:48 | 52.12365 | 4.84515 | 10625 ft | 288 kts | 175° |
| 2026-04-30 07:49 | 52.10255 | 4.84483 | 11328 ft | 322 kts | 175° |
| 2026-04-30 07:49 | 52.07899 | 4.84446 | 11909 ft | 344 kts | 176° |
| 2026-04-30 07:49 | 52.05468 | 4.84373 | 12555 ft | 360 kts | 177° |
| 2026-04-30 07:49 | 52.02981 | 4.84089 | 13192 ft | 363 kts | 186° |
| 2026-04-30 07:50 | 52.00491 | 4.82992 | 13859 ft | 373 kts | 197° |
| 2026-04-30 07:50 | 51.98111 | 4.81206 | 14487 ft | 382 kts | 203° |
| 2026-04-30 07:50 | 51.95755 | 4.79320 | 15083 ft | 382 kts | 202° |
| 2026-04-30 07:50 | 51.93310 | 4.77438 | 15702 ft | 387 kts | 202° |
| 2026-04-30 07:51 | 51.90902 | 4.75577 | 16317 ft | 389 kts | 202° |
| 2026-04-30 07:51 | 51.88469 | 4.73650 | 16951 ft | 392 kts | 203° |
| 2026-04-30 07:51 | 51.85996 | 4.71699 | 17599 ft | 396 kts | 203° |
| 2026-04-30 07:51 | 51.83507 | 4.69767 | 18261 ft | 398 kts | 202° |
| 2026-04-30 07:52 | 51.80992 | 4.67820 | 18899 ft | 404 kts | 203° |
| 2026-04-30 07:52 | 51.78449 | 4.65835 | 19483 ft | 407 kts | 203° |
| 2026-04-30 07:52 | 51.75905 | 4.63844 | 20076 ft | 410 kts | 203° |
| 2026-04-30 07:52 | 51.73312 | 4.61834 | 20689 ft | 414 kts | 203° |
| 2026-04-30 07:53 | 51.70709 | 4.59823 | 21296 ft | 417 kts | 203° |
| 2026-04-30 07:53 | 51.68079 | 4.57783 | 21926 ft | 421 kts | 203° |
| 2026-04-30 07:53 | 51.65428 | 4.55727 | 22578 ft | 425 kts | 203° |
| 2026-04-30 07:53 | 51.62748 | 4.53656 | 23232 ft | 429 kts | 204° |
| 2026-04-30 07:54 | 51.60040 | 4.51578 | 23910 ft | 435 kts | 203° |
| 2026-04-30 07:54 | 51.57293 | 4.49466 | 24487 ft | 439 kts | 204° |
| 2026-04-30 07:54 | 51.54529 | 4.47334 | 25074 ft | 441 kts | 203° |
| 2026-04-30 07:54 | 51.51756 | 4.45206 | 25673 ft | 444 kts | 203° |
| 2026-04-30 07:55 | 51.48949 | 4.43059 | 26288 ft | 449 kts | 203° |
| 2026-04-30 07:55 | 51.46126 | 4.40901 | 26919 ft | 450 kts | 203° |
| 2026-04-30 07:55 | 51.43288 | 4.38726 | 27559 ft | 454 kts | 203° |
| 2026-04-30 07:55 | 51.40428 | 4.36540 | 28216 ft | 457 kts | 203° |
| 2026-04-30 07:56 | 51.37549 | 4.34351 | 28825 ft | 461 kts | 202° |
| 2026-04-30 07:56 | 51.34627 | 4.32133 | 29371 ft | 466 kts | 202° |
| 2026-04-30 07:56 | 51.31690 | 4.29903 | 29930 ft | 469 kts | 202° |
| 2026-04-30 07:56 | 51.28725 | 4.27655 | 30484 ft | 472 kts | 202° |
| 2026-04-30 07:57 | 51.25694 | 4.25857 | 30961 ft | 471 kts | 192° |
| 2026-04-30 07:57 | 51.22490 | 4.24826 | 31455 ft | 468 kts | 184° |
| 2026-04-30 07:57 | 51.19250 | 4.24579 | 31959 ft | 465 kts | 175° |
| 2026-04-30 07:57 | 51.16030 | 4.25105 | 32226 ft | 465 kts | 166° |
| 2026-04-30 07:58 | 51.12938 | 4.26377 | 32488 ft | 452 kts | 158° |
| 2026-04-30 07:58 | 51.10052 | 4.28320 | 32742 ft | 451 kts | 150° |
| 2026-04-30 07:58 | 51.07383 | 4.30895 | 33010 ft | 446 kts | 142° |
| 2026-04-30 07:58 | 51.04987 | 4.33972 | 33272 ft | 441 kts | 136° |
| 2026-04-30 07:59 | 51.02639 | 4.37173 | 33341 ft | 451 kts | 137° |
| 2026-04-30 07:59 | 50.97805 | 4.43632 | 33347 ft | 451 kts | 137° |
| 2026-04-30 08:00 | 50.90584 | 4.53353 | 33357 ft | 453 kts | 136° |
| 2026-04-30 08:00 | 50.86134 | 4.60309 | 33349 ft | 449 kts | 133° |
| 2026-04-30 08:01 | 50.81652 | 4.67286 | 33352 ft | 453 kts | 133° |
| 2026-04-30 08:01 | 50.77196 | 4.74307 | 33349 ft | 451 kts | 133° |
| 2026-04-30 08:02 | 50.70510 | 4.84728 | 33346 ft | 450 kts | 133° |
| 2026-04-30 08:03 | 50.61577 | 4.98616 | 33343 ft | 453 kts | 133° |
| 2026-04-30 08:04 | 50.57102 | 5.05553 | 33342 ft | 450 kts | 133° |
| 2026-04-30 08:04 | 50.53359 | 5.11333 | 33347 ft | 451 kts | 133° |
| 2026-04-30 08:05 | 50.48869 | 5.18257 | 33347 ft | 453 kts | 133° |
| 2026-04-30 08:05 | 50.44362 | 5.25181 | 33348 ft | 454 kts | 133° |
| 2026-04-30 08:06 | 50.39854 | 5.32090 | 33338 ft | 452 kts | 133° |
| 2026-04-30 08:06 | 50.35390 | 5.38910 | 33332 ft | 450 kts | 133° |
| 2026-04-30 08:07 | 50.30896 | 5.45761 | 33328 ft | 452 kts | 133° |
| 2026-04-30 08:07 | 50.26371 | 5.52638 | 33319 ft | 454 kts | 133° |
| 2026-04-30 08:08 | 50.21844 | 5.59497 | 33325 ft | 453 kts | 133° |
| 2026-04-30 08:08 | 50.17323 | 5.66331 | 33321 ft | 452 kts | 133° |
| 2026-04-30 08:09 | 50.12804 | 5.73140 | 33325 ft | 452 kts | 133° |
| 2026-04-30 08:09 | 50.08291 | 5.79924 | 33324 ft | 451 kts | 133° |
| 2026-04-30 08:10 | 50.03757 | 5.86725 | 33332 ft | 453 kts | 133° |
| 2026-04-30 08:10 | 49.99209 | 5.93527 | 33324 ft | 454 kts | 133° |
| 2026-04-30 08:11 | 49.94676 | 6.00286 | 33330 ft | 450 kts | 133° |
| 2026-04-30 08:11 | 49.90148 | 6.07019 | 33335 ft | 452 kts | 133° |
| 2026-04-30 08:12 | 49.85244 | 6.13215 | 33328 ft | 460 kts | 144° |
| 2026-04-30 08:12 | 49.79446 | 6.17505 | 33322 ft | 463 kts | 152° |
| 2026-04-30 08:13 | 49.73558 | 6.21528 | 33327 ft | 462 kts | 152° |
| 2026-04-30 08:13 | 49.67658 | 6.25506 | 33331 ft | 464 kts | 152° |
| 2026-04-30 08:14 | 49.61767 | 6.29475 | 33327 ft | 465 kts | 152° |
| 2026-04-30 08:14 | 49.55769 | 6.33284 | 33326 ft | 467 kts | 153° |
| 2026-04-30 08:15 | 49.49791 | 6.37166 | 33324 ft | 465 kts | 153° |
| 2026-04-30 08:15 | 49.43863 | 6.41093 | 33317 ft | 463 kts | 152° |
| 2026-04-30 08:16 | 49.37966 | 6.45091 | 33313 ft | 463 kts | 152° |
| 2026-04-30 08:16 | 49.32054 | 6.49122 | 33302 ft | 466 kts | 152° |
| 2026-04-30 08:17 | 49.26118 | 6.53136 | 33296 ft | 467 kts | 152° |
| 2026-04-30 08:17 | 49.20187 | 6.57148 | 33292 ft | 465 kts | 152° |
| 2026-04-30 08:18 | 49.14276 | 6.61134 | 33292 ft | 465 kts | 152° |
| 2026-04-30 08:18 | 49.08370 | 6.65105 | 33292 ft | 468 kts | 152° |
| 2026-04-30 08:19 | 49.02395 | 6.69082 | 33284 ft | 470 kts | 154° |
| 2026-04-30 08:19 | 48.95958 | 6.71323 | 33282 ft | 480 kts | 171° |
| 2026-04-30 08:20 | 48.89248 | 6.71236 | 33279 ft | 482 kts | 178° |
| 2026-04-30 08:20 | 48.82531 | 6.71003 | 33274 ft | 482 kts | 177° |
| 2026-04-30 08:21 | 48.75837 | 6.70723 | 33270 ft | 482 kts | 178° |
| 2026-04-30 08:21 | 48.69155 | 6.70472 | 33261 ft | 484 kts | 178° |
| 2026-04-30 08:22 | 48.62400 | 6.70204 | 33258 ft | 485 kts | 178° |
| 2026-04-30 08:22 | 48.55685 | 6.69945 | 33245 ft | 481 kts | 178° |
| 2026-04-30 08:23 | 48.48972 | 6.69688 | 33234 ft | 484 kts | 178° |
| 2026-04-30 08:23 | 48.42223 | 6.69425 | 33231 ft | 485 kts | 178° |
| 2026-04-30 08:24 | 48.35472 | 6.69166 | 33224 ft | 484 kts | 178° |
| 2026-04-30 08:24 | 48.28753 | 6.68906 | 33212 ft | 483 kts | 178° |
| 2026-04-30 08:25 | 48.22058 | 6.68651 | 33213 ft | 485 kts | 178° |
| 2026-04-30 08:25 | 48.15324 | 6.68389 | 32636 ft | 473 kts | 178° |
| 2026-04-30 08:25 | 48.12050 | 6.68263 | 31913 ft | 470 kts | 178° |
| 2026-04-30 08:26 | 48.08790 | 6.68237 | 31226 ft | 468 kts | 173° |
| 2026-04-30 08:26 | 48.05591 | 6.68893 | 30557 ft | 464 kts | 164° |
| 2026-04-30 08:26 | 48.02495 | 6.70239 | 29831 ft | 459 kts | 156° |
| 2026-04-30 08:26 | 47.99633 | 6.72195 | 29085 ft | 448 kts | 147° |
| 2026-04-30 08:27 | 47.97041 | 6.74687 | 28356 ft | 440 kts | 139° |
| 2026-04-30 08:27 | 47.94747 | 6.77649 | 27752 ft | 432 kts | 131° |
| 2026-04-30 08:27 | 47.92776 | 6.80996 | 27177 ft | 428 kts | 124° |
| 2026-04-30 08:27 | 47.91141 | 6.84676 | 26626 ft | 423 kts | 117° |
| 2026-04-30 08:28 | 47.89685 | 6.88457 | 26074 ft | 419 kts | 117° |
| 2026-04-30 08:28 | 47.88210 | 6.92190 | 25537 ft | 417 kts | 117° |
| 2026-04-30 08:28 | 47.86734 | 6.95899 | 24994 ft | 415 kts | 117° |
| 2026-04-30 08:28 | 47.85285 | 6.99587 | 24455 ft | 412 kts | 117° |
| 2026-04-30 08:29 | 47.83843 | 7.03274 | 23923 ft | 409 kts | 117° |
| 2026-04-30 08:29 | 47.82425 | 7.06864 | 23367 ft | 405 kts | 117° |
| 2026-04-30 08:29 | 47.80979 | 7.10502 | 22831 ft | 401 kts | 117° |
| 2026-04-30 08:29 | 47.79569 | 7.14064 | 22311 ft | 401 kts | 117° |
| 2026-04-30 08:30 | 47.78173 | 7.17594 | 21786 ft | 398 kts | 117° |
| 2026-04-30 08:30 | 47.76774 | 7.21119 | 21279 ft | 394 kts | 117° |
| 2026-04-30 08:30 | 47.75347 | 7.24590 | 20769 ft | 395 kts | 121° |
| 2026-04-30 08:30 | 47.73755 | 7.27909 | 20259 ft | 394 kts | 122° |
| 2026-04-30 08:31 | 47.72167 | 7.31222 | 19745 ft | 392 kts | 121° |
| 2026-04-30 08:31 | 47.70615 | 7.34530 | 19231 ft | 389 kts | 121° |
| 2026-04-30 08:31 | 47.69069 | 7.37817 | 18727 ft | 388 kts | 122° |
| 2026-04-30 08:31 | 47.67509 | 7.41076 | 18188 ft | 386 kts | 122° |
| 2026-04-30 08:32 | 47.65961 | 7.44309 | 17684 ft | 383 kts | 122° |
| 2026-04-30 08:32 | 47.64435 | 7.47523 | 17185 ft | 380 kts | 122° |
| 2026-04-30 08:32 | 47.63121 | 7.50880 | 16687 ft | 374 kts | 111° |
| 2026-04-30 08:32 | 47.62222 | 7.54462 | 16206 ft | 369 kts | 106° |
| 2026-04-30 08:33 | 47.61407 | 7.58062 | 15725 ft | 367 kts | 107° |
| 2026-04-30 08:33 | 47.60563 | 7.61604 | 15244 ft | 364 kts | 107° |
| 2026-04-30 08:33 | 47.59718 | 7.65145 | 14779 ft | 362 kts | 107° |
| 2026-04-30 08:33 | 47.58904 | 7.68645 | 14295 ft | 359 kts | 107° |
| 2026-04-30 08:34 | 47.58097 | 7.72123 | 13803 ft | 351 kts | 107° |
| 2026-04-30 08:34 | 47.57318 | 7.75404 | 13370 ft | 324 kts | 107° |
| 2026-04-30 08:34 | 47.56600 | 7.78424 | 12975 ft | 300 kts | 107° |
| 2026-04-30 08:34 | 47.55938 | 7.81251 | 12605 ft | 283 kts | 107° |
| 2026-04-30 08:35 | 47.55293 | 7.84000 | 12241 ft | 284 kts | 107° |
| 2026-04-30 08:35 | 47.54638 | 7.86777 | 11866 ft | 287 kts | 107° |
| 2026-04-30 08:35 | 47.53977 | 7.89575 | 11487 ft | 287 kts | 107° |
| 2026-04-30 08:35 | 47.53315 | 7.92357 | 11110 ft | 285 kts | 107° |
| 2026-04-30 08:36 | 47.52660 | 7.95125 | 10736 ft | 284 kts | 107° |
| 2026-04-30 08:36 | 47.52008 | 7.97868 | 10374 ft | 281 kts | 108° |
| 2026-04-30 08:36 | 47.51540 | 8.00651 | 9999 ft | 277 kts | 96° |
| 2026-04-30 08:36 | 47.51518 | 8.03478 | 9625 ft | 273 kts | 83° |
| 2026-04-30 08:37 | 47.51904 | 8.06164 | 9277 ft | 270 kts | 72° |
| 2026-04-30 08:37 | 47.52681 | 8.08677 | 8932 ft | 268 kts | 60° |
| 2026-04-30 08:37 | 47.53735 | 8.10958 | 8571 ft | 265 kts | 56° |
| 2026-04-30 08:37 | 47.54763 | 8.13118 | 8246 ft | 245 kts | 57° |
| 2026-04-30 08:38 | 47.55678 | 8.15089 | 7976 ft | 221 kts | 57° |
| 2026-04-30 08:38 | 47.56538 | 8.16939 | 7705 ft | 218 kts | 57° |
| 2026-04-30 08:38 | 47.57403 | 8.18794 | 7424 ft | 219 kts | 58° |
| 2026-04-30 08:38 | 47.58272 | 8.20657 | 7144 ft | 220 kts | 57° |
| 2026-04-30 08:39 | 47.59138 | 8.22518 | 6842 ft | 217 kts | 58° |
| 2026-04-30 08:39 | 47.59872 | 8.24430 | 6573 ft | 211 kts | 69° |
| 2026-04-30 08:39 | 47.60462 | 8.26440 | 6283 ft | 213 kts | 67° |
| 2026-04-30 08:39 | 47.61080 | 8.28428 | 6000 ft | 212 kts | 67° |
| 2026-04-30 08:40 | 47.61473 | 8.30515 | 5705 ft | 210 kts | 83° |
| 2026-04-30 08:40 | 47.61482 | 8.32655 | 5449 ft | 208 kts | 95° |
| 2026-04-30 08:40 | 47.61137 | 8.34748 | 5157 ft | 209 kts | 109° |
| 2026-04-30 08:40 | 47.60457 | 8.36619 | 4890 ft | 205 kts | 122° |
| 2026-04-30 08:41 | 47.59491 | 8.38199 | 4620 ft | 209 kts | 134° |
| 2026-04-30 08:41 | 47.58414 | 8.39627 | 4353 ft | 210 kts | 133° |
| 2026-04-30 08:41 | 47.57359 | 8.41064 | 4221 ft | 200 kts | 133° |
| 2026-04-30 08:41 | 47.56372 | 8.42420 | 3867 ft | 183 kts | 131° |
| 2026-04-30 08:42 | 47.55476 | 8.43651 | 3481 ft | 163 kts | 132° |
| 2026-04-30 08:42 | 47.54693 | 8.44721 | 3247 ft | 144 kts | 130° |
| 2026-04-30 08:42 | 47.53980 | 8.45710 | 3036 ft | 138 kts | 130° |
| 2026-04-30 08:42 | 47.53276 | 8.46677 | 2847 ft | 138 kts | 130° |
| 2026-04-30 08:43 | 47.52592 | 8.47608 | 2665 ft | 131 kts | 130° |
| 2026-04-30 08:43 | 47.51932 | 8.48510 | 2473 ft | 128 kts | 130° |
| 2026-04-30 08:43 | 47.51304 | 8.49369 | 2268 ft | 119 kts | 132° |
| 2026-04-30 08:43 | 47.50697 | 8.50196 | 2097 ft | 117 kts | 129° |
| 2026-04-30 08:44 | 47.50095 | 8.51037 | 1935 ft | 123 kts | 130° |
| 2026-04-30 08:44 | 47.49443 | 8.51900 | 1806 ft | 127 kts | 131° |
| 2026-04-30 08:44 | 47.48776 | 8.52794 | 1643 ft | 131 kts | 130° |
| 2026-04-30 08:44 | 47.48111 | 8.53726 | 1433 ft | 132 kts | 129° |
| 2026-04-30 08:45 | 47.47510 | 8.54509 | 1405 ft | 102 kts | 119° |
| 2026-04-30 08:45 | 47.47256 | 8.55064 | 1406 ft | 33 kts | 157° |
| 2026-04-30 08:45 | 47.47065 | 8.55191 | 1403 ft | 30 kts | 142° |
| 2026-04-30 08:45 | 47.46908 | 8.55377 | 1405 ft | 28 kts | 139° |
| 2026-04-30 08:46 | 47.46743 | 8.55582 | 1410 ft | 32 kts | 147° |
| 2026-04-30 08:46 | 47.46546 | 8.55692 | 1406 ft | 26 kts | 166° |
| 2026-04-30 08:46 | 47.46375 | 8.55774 | 1410 ft | 21 kts | 142° |
| 2026-04-30 08:46 | 47.46293 | 8.55883 | 1409 ft | 15 kts | 135° |
| 2026-04-30 08:47 | 47.46234 | 8.55969 | 1405 ft | 9 kts | 134° |
| 2026-04-30 08:47 | 47.46175 | 8.56044 | 1406 ft | 15 kts | 143° |
| 2026-04-30 08:47 | 47.46089 | 8.56164 | 1406 ft | 18 kts | 133° |
| 2026-04-30 08:47 | 47.45995 | 8.56285 | 1407 ft | 18 kts | 147° |
| 2026-04-30 08:48 | 47.45873 | 8.56302 | 1410 ft | 18 kts | 183° |
| 2026-04-30 08:48 | 47.45744 | 8.56284 | 1414 ft | 21 kts | 188° |
| 2026-04-30 08:48 | 47.45643 | 8.56268 | 1412 ft | 6 kts | 184° |
| 2026-04-30 08:48 | 47.45606 | 8.56279 | 1398 ft | 9 kts | 142° |
| 2026-04-30 08:49 | 47.45597 | 8.56385 | 1394 ft | 15 kts | 97° |
| 2026-04-30 08:49 | 47.45546 | 8.56519 | 1393 ft | 16 kts | 136° |
| 2026-04-30 08:49 | 47.45502 | 8.56656 | 1400 ft | 14 kts | 96° |
| 2026-04-30 08:49 | 47.45527 | 8.56712 | 1401 ft | 6 kts | 317° |
| 2026-04-30 08:50 | 47.45533 | 8.56704 | 1393 ft | 0 kts | 318° |